createdAt,value
2023-05-02T00:01:07.361Z,25.93
2023-05-02T00:03:56.477Z,23.43
2023-05-02T00:06:46.669Z,22.00
2023-05-02T00:09:36.098Z,24.47
2023-05-02T00:12:25.101Z,23.70
2023-05-02T00:15:15.309Z,26.30
2023-05-02T00:18:04.402Z,26.60
2023-05-02T00:20:53.321Z,23.77
2023-05-02T00:23:42.286Z,25.97
2023-05-02T00:26:31.442Z,24.20
2023-05-02T00:29:23.286Z,26.70
2023-05-02T00:32:13.449Z,26.70
2023-05-02T00:35:02.271Z,24.70
2023-05-02T00:37:51.809Z,25.70
2023-05-02T00:40:48.258Z,27.77
2023-05-02T00:43:39.503Z,28.37
2023-05-02T00:46:28.797Z,25.97
2023-05-02T00:49:19.192Z,25.40
2023-05-02T00:52:08.742Z,24.00
2023-05-02T00:54:58.452Z,24.63
2023-05-02T00:57:48.349Z,24.40
2023-05-02T01:01:00.373Z,26.30
2023-05-02T01:04:05.969Z,22.27
2023-05-02T01:07:16.616Z,24.40
2023-05-02T01:10:35.902Z,24.07
2023-05-02T01:13:32.975Z,24.83
2023-05-02T01:16:25.286Z,23.63
2023-05-02T01:19:27.320Z,22.87
2023-05-02T01:22:20.964Z,23.70
2023-05-02T01:25:30.437Z,24.23
2023-05-02T01:28:50.765Z,24.43
2023-05-02T01:31:43.859Z,23.67
2023-05-02T01:34:37.278Z,25.93
2023-05-02T01:37:28.672Z,23.70
2023-05-02T01:40:22.656Z,25.63
2023-05-02T01:43:14.044Z,23.87
2023-05-02T01:46:09.829Z,23.40
2023-05-02T01:49:02.974Z,23.03
2023-05-02T01:51:53.213Z,23.90
2023-05-02T01:54:43.961Z,23.67
2023-05-02T01:57:33.629Z,24.70
2023-05-02T02:00:25.083Z,27.20
2023-05-02T02:03:16.692Z,25.67
2023-05-02T02:06:08.165Z,24.53
2023-05-02T02:08:57.120Z,26.43
2023-05-02T02:11:53.587Z,26.80
2023-05-02T02:14:50.795Z,22.93
2023-05-02T02:17:44.867Z,25.60
2023-05-02T02:20:37.360Z,26.07
2023-05-02T02:23:30.191Z,26.97
2023-05-02T02:26:22.148Z,25.40
2023-05-02T02:29:11.381Z,25.57
2023-05-02T02:32:00.175Z,25.37
2023-05-02T02:34:49.135Z,29.00
2023-05-02T02:37:48.684Z,29.37
2023-05-02T02:40:49.151Z,23.57
2023-05-02T02:43:49.148Z,24.43
2023-05-02T02:46:52.109Z,25.60
2023-05-02T02:49:52.506Z,24.93
2023-05-02T02:52:55.850Z,26.70
2023-05-02T02:55:54.439Z,22.63
2023-05-02T02:58:56.474Z,25.53
2023-05-02T03:02:02.647Z,23.97
2023-05-02T03:04:54.922Z,24.73
2023-05-02T03:07:45.572Z,23.47
2023-05-02T03:10:35.568Z,23.20
2023-05-02T03:13:24.674Z,24.57
2023-05-02T03:16:37.125Z,25.13
2023-05-02T03:19:28.917Z,23.13
2023-05-02T03:22:18.735Z,25.27
2023-05-02T03:25:10.734Z,23.83
2023-05-02T03:28:03.654Z,22.83
2023-05-02T03:30:52.584Z,21.70
2023-05-02T03:33:42.352Z,23.23
2023-05-02T03:36:31.571Z,25.20
2023-05-02T03:39:20.609Z,23.20
2023-05-02T03:42:12.132Z,24.13
2023-05-02T03:45:01.131Z,25.37
2023-05-02T03:47:50.817Z,23.60
2023-05-02T03:50:40.055Z,24.97
2023-05-02T03:53:28.965Z,24.87
2023-05-02T03:56:21.161Z,22.40
2023-05-02T03:59:20.985Z,25.30
2023-05-02T04:02:11.548Z,24.50
2023-05-02T04:05:04.696Z,24.13
2023-05-02T04:07:54.115Z,24.80
2023-05-02T04:10:43.295Z,24.90
2023-05-02T04:13:33.796Z,25.43
2023-05-02T04:16:24.673Z,22.67
2023-05-02T04:19:16.729Z,23.00
2023-05-02T04:22:05.659Z,23.77
2023-05-02T04:24:58.707Z,22.57
2023-05-02T04:27:49.061Z,24.30
2023-05-02T04:30:40.843Z,24.70
2023-05-02T04:33:34.312Z,25.07
2023-05-02T04:36:23.636Z,22.67
2023-05-02T04:39:13.501Z,25.77
2023-05-02T04:42:07.850Z,28.00
2023-05-02T04:45:03.738Z,28.10
2023-05-02T04:47:53.744Z,26.90
2023-05-02T04:50:46.261Z,30.07
2023-05-02T04:53:35.258Z,29.90
2023-05-02T04:56:25.565Z,28.43
2023-05-02T04:59:15.414Z,28.67
2023-05-02T05:02:05.135Z,27.70
2023-05-02T05:04:54.360Z,33.13
2023-05-02T05:07:45.533Z,27.73
2023-05-02T05:10:35.768Z,31.47
2023-05-02T05:13:25.692Z,30.53
2023-05-02T05:16:15.549Z,29.57
2023-05-02T05:19:05.895Z,30.00
2023-05-02T05:21:55.703Z,30.43
2023-05-02T05:24:53.912Z,29.83
2023-05-02T05:27:44.707Z,28.20
2023-05-02T05:30:34.293Z,28.97
2023-05-02T05:33:25.263Z,26.87
2023-05-02T05:36:15.669Z,26.27
2023-05-02T05:39:04.691Z,30.67
2023-05-02T05:41:57.562Z,29.90
2023-05-02T05:44:47.043Z,28.10
2023-05-02T05:47:37.767Z,27.50
2023-05-02T05:50:27.923Z,26.70
2023-05-02T05:53:18.197Z,30.07
2023-05-02T05:56:11.588Z,27.10
2023-05-02T05:59:04.176Z,25.70
2023-05-02T06:01:54.192Z,25.70
2023-05-02T06:04:46.694Z,25.40
2023-05-02T06:07:37.232Z,23.23
2023-05-02T06:10:26.982Z,21.30
2023-05-02T06:13:16.553Z,22.67
2023-05-02T06:16:08.830Z,20.60
2023-05-02T06:18:57.856Z,21.80
2023-05-02T06:21:47.295Z,19.40
2023-05-02T06:24:37.880Z,17.13
2023-05-02T06:27:26.866Z,17.97
2023-05-02T06:30:16.090Z,15.10
2023-05-02T06:33:07.699Z,15.10
2023-05-02T06:35:57.804Z,14.37
2023-05-02T06:38:48.897Z,12.87
2023-05-02T06:41:39.058Z,12.37
2023-05-02T06:44:28.138Z,12.70
2023-05-02T06:47:17.671Z,13.60
2023-05-02T06:50:10.385Z,12.10
2023-05-02T06:52:59.375Z,10.50
2023-05-02T06:55:49.124Z,11.40
2023-05-02T06:58:39.624Z,10.47
2023-05-02T07:01:28.811Z,10.30
2023-05-02T07:04:17.814Z,9.97
2023-05-02T07:07:10.833Z,10.40
2023-05-02T07:10:00.674Z,9.73
2023-05-02T07:12:50.332Z,10.07
2023-05-02T07:15:39.615Z,10.77
2023-05-02T07:18:33.318Z,10.80
2023-05-02T07:21:22.259Z,10.30
2023-05-02T07:24:12.672Z,9.13
2023-05-02T07:28:01.302Z,8.93
2023-05-02T07:30:52.254Z,9.63
2023-05-02T07:33:41.677Z,8.97
2023-05-02T07:36:30.809Z,9.20
2023-05-02T07:39:21.271Z,7.87
2023-05-02T07:42:10.416Z,8.77
2023-05-02T07:45:00.521Z,7.87
2023-05-02T07:47:49.575Z,7.73
2023-05-02T07:50:40.335Z,8.30
2023-05-02T07:53:30.946Z,8.90
2023-05-02T07:56:23.430Z,7.60
2023-05-02T07:59:12.555Z,7.93
2023-05-02T08:02:01.696Z,8.37
2023-05-02T08:04:50.976Z,7.10
2023-05-02T08:07:39.947Z,7.40
2023-05-02T08:10:29.998Z,7.80
2023-05-02T08:13:21.716Z,8.10
2023-05-02T08:16:11.466Z,8.40
2023-05-02T08:19:00.689Z,8.77
2023-05-02T08:21:49.771Z,7.60
2023-05-02T08:24:40.732Z,6.83
2023-05-02T08:27:29.742Z,7.47
2023-05-02T08:30:20.438Z,8.53
2023-05-02T08:33:09.810Z,7.63
2023-05-02T08:35:59.033Z,7.07
2023-05-02T08:38:49.394Z,7.60
2023-05-02T08:41:39.446Z,7.13
2023-05-02T08:44:28.929Z,7.37
2023-05-02T08:47:22.081Z,7.17
2023-05-02T08:50:13.441Z,7.27
2023-05-02T08:53:02.665Z,7.70
2023-05-02T08:55:51.837Z,8.10
2023-05-02T08:58:42.482Z,7.80
2023-05-02T09:01:34.474Z,9.07
2023-05-02T09:04:32.033Z,8.00
2023-05-02T09:07:22.126Z,8.27
2023-05-02T09:10:13.782Z,7.63
2023-05-02T09:13:30.880Z,8.40
2023-05-02T09:16:24.791Z,8.50
2023-05-02T09:19:27.096Z,8.07
2023-05-02T09:22:24.484Z,7.67
2023-05-02T09:25:15.870Z,8.30
2023-05-02T09:28:05.760Z,9.07
2023-05-02T09:31:09.458Z,8.93
2023-05-02T09:34:00.119Z,8.97
2023-05-02T09:36:54.359Z,8.60
2023-05-02T09:40:07.539Z,8.13
2023-05-02T09:42:57.980Z,8.63
2023-05-02T09:45:59.540Z,8.57
2023-05-02T09:48:56.791Z,9.07
2023-05-02T09:51:48.828Z,8.37
2023-05-02T09:54:43.108Z,8.17
2023-05-02T09:57:42.014Z,8.20
2023-05-02T10:00:43.158Z,8.40
2023-05-02T10:03:32.577Z,9.30
2023-05-02T10:06:22.801Z,8.90
2023-05-02T10:09:16.595Z,7.83
2023-05-02T10:12:08.825Z,8.30
2023-05-02T10:15:05.839Z,8.53
2023-05-02T10:17:59.436Z,9.20
2023-05-02T10:20:59.689Z,9.47
2023-05-02T10:23:49.836Z,9.53
2023-05-02T10:26:40.129Z,9.43
2023-05-02T10:29:33.911Z,9.93
2023-05-02T10:32:25.190Z,8.63
2023-05-02T10:35:16.912Z,9.07
2023-05-02T10:38:07.812Z,8.70
2023-05-02T10:41:02.914Z,8.97
2023-05-02T10:43:52.461Z,8.70
2023-05-02T10:46:43.502Z,9.07
2023-05-02T10:49:32.731Z,9.20
2023-05-02T10:52:32.944Z,9.53
2023-05-02T10:55:25.321Z,11.43
2023-05-02T10:58:24.873Z,8.47
2023-05-02T11:01:41.775Z,8.70
2023-05-02T11:05:04.232Z,7.17
2023-05-02T11:08:32.022Z,8.00
2023-05-02T11:11:41.125Z,8.57
2023-05-02T11:14:49.899Z,7.43
2023-05-02T11:18:01.732Z,7.93
2023-05-02T11:20:51.995Z,7.87
2023-05-02T11:23:42.953Z,8.47
2023-05-02T11:26:32.853Z,8.20
2023-05-02T11:29:58.047Z,8.10
2023-05-02T11:33:20.162Z,8.00
2023-05-02T11:36:10.940Z,7.30
2023-05-02T11:39:00.649Z,7.07
2023-05-02T11:41:51.102Z,7.40
2023-05-02T11:44:58.301Z,6.90
2023-05-02T11:47:48.724Z,6.70
2023-05-02T11:50:49.558Z,7.03
2023-05-02T11:53:43.224Z,5.97
2023-05-02T11:56:32.335Z,6.30
2023-05-02T11:59:21.191Z,6.83
2023-05-02T12:02:10.164Z,5.60
2023-05-02T12:04:59.872Z,4.90
2023-05-02T12:07:49.969Z,5.67
2023-05-02T12:10:40.914Z,5.20
2023-05-02T12:13:31.650Z,5.40
2023-05-02T12:16:21.235Z,5.23
2023-05-02T12:19:10.457Z,5.30
2023-05-02T12:22:00.080Z,5.90
2023-05-02T12:24:50.625Z,5.50
2023-05-02T12:27:40.907Z,5.90
2023-05-02T12:30:31.273Z,5.70
2023-05-02T12:33:20.781Z,5.47
2023-05-02T12:36:12.951Z,4.10
2023-05-02T12:39:04.512Z,4.00
2023-05-02T12:41:53.772Z,5.27
2023-05-02T12:44:46.096Z,5.10
2023-05-02T12:47:46.839Z,6.83
2023-05-02T12:50:38.428Z,6.37
2023-05-02T12:53:41.705Z,6.73
2023-05-02T12:56:33.075Z,7.63
2023-05-02T12:59:30.566Z,8.20
2023-05-02T13:02:21.037Z,7.37
2023-05-02T13:05:17.243Z,7.33
2023-05-02T13:08:07.186Z,6.50
2023-05-02T13:10:56.323Z,6.93
2023-05-02T13:13:45.168Z,7.13
2023-05-02T13:16:37.579Z,6.37
2023-05-02T13:19:31.433Z,5.07
2023-05-02T13:22:20.512Z,4.13
2023-05-02T13:25:11.084Z,4.80
2023-05-02T13:28:00.181Z,4.10
2023-05-02T13:30:49.088Z,4.23
2023-05-02T13:33:37.916Z,3.13
2023-05-02T13:36:28.976Z,4.27
2023-05-02T13:39:18.032Z,4.57
2023-05-02T13:42:08.094Z,4.73
2023-05-02T13:44:57.042Z,3.97
2023-05-02T13:47:46.686Z,3.53
2023-05-02T13:50:39.347Z,4.10
2023-05-02T13:53:30.174Z,4.50
2023-05-02T13:56:19.100Z,5.77
2023-05-02T13:59:10.233Z,4.60
2023-05-02T14:02:01.131Z,3.80
2023-05-02T14:04:50.590Z,4.73
2023-05-02T14:07:40.093Z,4.17
2023-05-02T14:10:31.306Z,4.17
2023-05-02T14:13:20.350Z,3.70
2023-05-02T14:26:49.381Z,3.60
2023-05-02T14:29:50.939Z,3.53
2023-05-02T14:32:52.991Z,3.90
2023-05-02T14:36:04.499Z,4.10
2023-05-02T14:39:01.091Z,3.70
2023-05-02T14:41:59.498Z,3.60
2023-05-02T14:44:58.788Z,3.50
2023-05-02T14:47:54.596Z,3.07
2023-05-02T14:50:46.883Z,2.90
2023-05-02T14:53:43.087Z,2.80
2023-05-02T14:56:58.647Z,4.07
2023-05-02T15:00:32.050Z,3.20
2023-05-02T15:03:24.045Z,3.23
2023-05-02T15:06:54.339Z,3.10
2023-05-02T15:09:49.120Z,2.80
2023-05-02T15:12:41.080Z,3.07
2023-05-02T15:15:38.595Z,4.57
2023-05-02T15:18:43.296Z,3.50
2023-05-02T15:21:53.242Z,3.90
2023-05-02T15:24:56.303Z,4.80
2023-05-02T15:28:03.322Z,3.73
2023-05-02T15:31:00.050Z,3.00
2023-05-02T15:33:56.455Z,3.17
2023-05-02T15:36:56.099Z,3.30
2023-05-02T15:40:10.852Z,3.57
2023-05-02T15:43:05.334Z,4.63
2023-05-02T15:46:29.653Z,4.73
2023-05-02T15:49:35.144Z,4.80
2023-05-02T15:52:33.062Z,5.60
2023-05-02T15:55:28.430Z,5.90
2023-05-02T15:58:23.079Z,7.80
2023-05-02T16:01:19.157Z,7.50
2023-05-02T16:04:30.113Z,8.70
2023-05-02T16:07:27.558Z,8.47
2023-05-02T16:10:27.212Z,8.37
2023-05-02T16:13:34.975Z,8.93
2023-05-02T16:16:45.370Z,9.03
2023-05-02T16:19:38.382Z,8.50
2023-05-02T16:22:33.502Z,8.40
2023-05-02T16:25:42.206Z,8.17
2023-05-02T16:28:39.695Z,8.73
2023-05-02T16:31:36.478Z,8.10
2023-05-02T16:34:39.309Z,7.57
2023-05-02T16:37:36.256Z,7.73
2023-05-02T16:40:39.614Z,7.10
2023-05-02T16:43:45.002Z,8.40
2023-05-02T16:46:45.750Z,7.10
2023-05-02T16:49:41.609Z,7.70
2023-05-02T16:52:38.194Z,7.47
2023-05-02T16:55:39.508Z,7.57
2023-05-02T16:58:50.676Z,6.80
2023-05-02T17:02:06.806Z,7.63
2023-05-02T17:05:25.266Z,6.30
2023-05-02T17:08:32.519Z,5.90
2023-05-02T17:12:05.517Z,7.20
2023-05-02T17:15:09.515Z,6.97
2023-05-02T17:18:17.308Z,6.40
2023-05-02T17:21:33.124Z,8.20
2023-05-02T17:24:54.925Z,7.73
2023-05-02T17:27:58.260Z,9.70
2023-05-02T17:31:11.086Z,8.70
2023-05-02T17:34:04.109Z,8.87
2023-05-02T17:36:57.525Z,8.97
2023-05-02T17:39:51.800Z,9.43
2023-05-02T17:42:59.185Z,8.07
2023-05-02T17:46:11.132Z,9.00
2023-05-02T17:49:04.809Z,10.90
2023-05-02T17:52:12.139Z,10.47
2023-05-02T17:55:10.521Z,13.17
2023-05-02T17:58:10.385Z,12.63
2023-05-02T18:01:12.524Z,11.97
2023-05-02T18:04:06.831Z,9.83
2023-05-02T18:07:05.701Z,10.60
2023-05-02T18:10:04.293Z,10.47
2023-05-02T18:13:04.323Z,9.90
2023-05-02T18:16:26.895Z,10.40
2023-05-02T18:19:50.845Z,9.10
2023-05-02T18:26:28.651Z,9.07
2023-05-02T18:29:22.757Z,9.10
2023-05-02T18:32:41.339Z,10.00
2023-05-02T18:36:09.067Z,12.17
2023-05-02T18:42:14.066Z,13.27
2023-05-02T18:45:11.984Z,12.87
2023-05-02T18:48:06.611Z,12.17
2023-05-02T18:51:01.072Z,12.90
2023-05-02T18:53:56.388Z,12.67
2023-05-02T18:56:50.368Z,13.67
2023-05-02T18:59:45.330Z,12.90
2023-05-02T19:02:44.270Z,13.97
2023-05-02T19:05:43.994Z,14.67
2023-05-02T19:08:37.802Z,12.70
2023-05-02T19:11:31.106Z,13.63
2023-05-02T19:14:27.722Z,20.43
2023-05-02T19:17:23.192Z,18.30
2023-05-02T19:20:16.661Z,19.03
2023-05-02T19:23:19.766Z,15.83
2023-05-02T19:26:18.558Z,18.30
2023-05-02T19:29:11.880Z,20.10
2023-05-02T19:32:06.006Z,21.10
2023-05-02T19:35:01.372Z,22.70
2023-05-02T19:38:02.325Z,18.30
2023-05-02T19:41:01.392Z,19.80
2023-05-02T19:43:57.688Z,18.47
2023-05-02T19:46:52.203Z,19.13
2023-05-02T19:49:45.420Z,18.40
2023-05-02T19:52:45.221Z,20.90
2023-05-02T19:55:39.406Z,25.07
2023-05-02T19:58:33.567Z,21.50
2023-05-02T20:01:27.934Z,21.50
2023-05-02T20:04:21.601Z,20.73
2023-05-02T20:07:15.382Z,17.93
2023-05-02T20:10:19.431Z,18.37
2023-05-02T20:13:13.351Z,18.10
2023-05-02T20:16:07.222Z,16.90
2023-05-02T20:19:01.563Z,16.53
2023-05-02T20:21:55.052Z,16.47
2023-05-02T20:24:50.478Z,19.90
2023-05-02T20:27:46.252Z,28.93
2023-05-02T20:30:41.073Z,31.83
2023-05-02T20:33:44.335Z,26.20
2023-05-02T20:36:39.158Z,27.77
2023-05-02T20:39:35.414Z,24.20
2023-05-02T20:42:29.724Z,21.70
2023-05-02T20:45:25.804Z,20.40
2023-05-02T20:48:21.116Z,18.50
2023-05-02T20:51:14.872Z,20.20
2023-05-02T20:54:08.663Z,19.53
2023-05-02T20:57:03.506Z,19.70
2023-05-02T21:00:01.477Z,20.87
2023-05-02T21:02:57.169Z,22.53
2023-05-02T21:05:55.319Z,23.30
2023-05-02T21:08:49.258Z,23.63
2023-05-02T21:11:45.231Z,21.00
2023-05-02T21:14:39.065Z,20.83
2023-05-02T21:17:32.535Z,17.20
2023-05-02T21:20:28.256Z,15.83
2023-05-02T21:23:23.147Z,13.87
2023-05-02T21:26:17.238Z,14.60
2023-05-02T21:29:11.537Z,14.13
2023-05-02T21:32:05.411Z,13.43
2023-05-02T21:34:59.165Z,13.73
2023-05-02T21:37:54.849Z,13.00
2023-05-02T21:40:48.532Z,12.97
2023-05-02T21:43:42.841Z,14.43
2023-05-02T21:46:36.766Z,12.93
2023-05-02T21:49:32.416Z,14.93
2023-05-02T21:52:26.484Z,15.43
2023-05-02T21:55:22.704Z,14.90
2023-05-02T21:58:16.674Z,13.87
2023-05-02T22:01:10.332Z,15.83
2023-05-02T22:04:04.594Z,14.63
2023-05-02T22:06:58.481Z,15.90
2023-05-02T22:09:51.827Z,14.00
2023-05-02T22:12:47.318Z,15.43
2023-05-02T22:15:43.795Z,14.20
2023-05-02T22:18:37.371Z,14.67
2023-05-02T22:21:31.291Z,14.00
2023-05-02T22:24:26.157Z,13.67
2023-05-02T22:27:32.195Z,14.07
2023-05-02T22:30:30.334Z,13.47
2023-05-02T22:33:32.670Z,14.40
2023-05-02T22:36:33.127Z,14.17
2023-05-02T22:39:28.536Z,14.50
2023-05-02T22:42:27.968Z,14.47
2023-05-02T22:45:22.193Z,14.10
2023-05-02T22:48:26.114Z,14.27
2023-05-02T22:51:22.854Z,14.80
2023-05-02T22:54:18.988Z,14.20
2023-05-02T22:57:12.477Z,14.20
2023-05-02T23:00:08.232Z,12.90
2023-05-02T23:03:01.806Z,14.00
2023-05-02T23:05:59.766Z,13.33
2023-05-02T23:08:53.542Z,13.40
2023-05-02T23:11:47.544Z,13.30
2023-05-02T23:14:42.368Z,13.07
2023-05-02T23:17:35.823Z,11.30
2023-05-02T23:20:29.967Z,11.00
2023-05-02T23:23:26.349Z,12.90
2023-05-02T23:26:21.153Z,11.93
2023-05-02T23:29:14.379Z,11.00
2023-05-02T23:32:10.135Z,10.73
2023-05-02T23:35:06.473Z,10.80
2023-05-02T23:38:02.806Z,11.70
2023-05-02T23:40:57.949Z,9.97
2023-05-02T23:43:51.752Z,10.73
2023-05-02T23:46:46.934Z,10.80
2023-05-02T23:49:41.379Z,11.40
2023-05-02T23:52:35.174Z,10.87
2023-05-02T23:55:30.212Z,11.50
2023-05-02T23:58:26.385Z,11.93
